Weather at Pincher Creek Airport

Public forecast

Using degrees Celsius for public forecast. Weather courtesy of forecast.io.

Current aviation weather report (METAR) for Pincher Creek Airport

2024/05/22 20:19 (retrieved 1 minute ago)

CZPC 222019Z AUTO 02023G30KT 9SM -RA SCT022 BKN035 BKN044 OVC055 08/05 A2979 RMK SLP101 DENSITY ALT 4200FT

Closest aviation forecast (TAF) to Pincher Creek Airport

Closest forecast is Lethbridge County Airport, 47.1 nm (87.2 km) E.

2024/05/22 18:57 (retrieved 1 hour ago)

TAF TAF CYQL 221755Z 2218/2306 01012KT P6SM BKN020 OVC025 BECMG 2219/2221 SCT020 BKN040 FM222100 04012G22KT P6SM BKN040 TEMPO 2221/2302 P6SM -SHRA BKN030 FM230200 04012KT P6SM BKN040 BECMG 2303/2305 FEW040 FM230500 02005KT P6SM SKC RMK NXT FCST BY 230000Z